sensor_id;sensor_type;location;lat;lon;timestamp;P1;durP1;ratioP1;P2;durP2;ratioP2
11334;SDS011;5722;42.620;23.374;2022-11-21T00:01:43;10.80;;;7.60;;
11334;SDS011;5722;42.620;23.374;2022-11-21T00:04:11;8.13;;;7.27;;
11334;SDS011;5722;42.620;23.374;2022-11-21T00:06:38;9.30;;;7.27;;
11334;SDS011;5722;42.620;23.374;2022-11-21T00:09:07;8.90;;;7.20;;
11334;SDS011;5722;42.620;23.374;2022-11-21T00:11:37;6.87;;;6.17;;
11334;SDS011;5722;42.620;23.374;2022-11-21T00:14:07;7.87;;;5.50;;
11334;SDS011;5722;42.620;23.374;2022-11-21T00:16:40;9.53;;;5.40;;
11334;SDS011;5722;42.620;23.374;2022-11-21T00:19:07;5.47;;;4.60;;
11334;SDS011;5722;42.620;23.374;2022-11-21T00:21:34;6.10;;;4.60;;
11334;SDS011;5722;42.620;23.374;2022-11-21T00:24:03;5.03;;;4.53;;
11334;SDS011;5722;42.620;23.374;2022-11-21T00:26:30;6.13;;;4.60;;
11334;SDS011;5722;42.620;23.374;2022-11-21T00:28:57;5.03;;;3.83;;
11334;SDS011;5722;42.620;23.374;2022-11-21T00:31:24;5.03;;;3.23;;
11334;SDS011;5722;42.620;23.374;2022-11-21T00:33:53;4.13;;;2.13;;
11334;SDS011;5722;42.620;23.374;2022-11-21T00:36:20;8.97;;;2.40;;
11334;SDS011;5722;42.620;23.374;2022-11-21T00:38:47;3.17;;;1.70;;
11334;SDS011;5722;42.620;23.374;2022-11-21T00:41:14;5.97;;;1.80;;
11334;SDS011;5722;42.620;23.374;2022-11-21T00:43:41;5.20;;;2.07;;
11334;SDS011;5722;42.620;23.374;2022-11-21T00:46:12;2.67;;;1.67;;
11334;SDS011;5722;42.620;23.374;2022-11-21T00:48:39;4.20;;;1.97;;
11334;SDS011;5722;42.620;23.374;2022-11-21T00:51:07;3.90;;;1.90;;
11334;SDS011;5722;42.620;23.374;2022-11-21T00:53:34;3.80;;;1.63;;
11334;SDS011;5722;42.620;23.374;2022-11-21T00:56:01;5.47;;;1.60;;
11334;SDS011;5722;42.620;23.374;2022-11-21T00:58:28;2.77;;;1.10;;
11334;SDS011;5722;42.620;23.374;2022-11-21T01:01:02;3.40;;;1.00;;
11334;SDS011;5722;42.620;23.374;2022-11-21T01:03:30;3.30;;;1.03;;
11334;SDS011;5722;42.620;23.374;2022-11-21T01:06:01;2.07;;;1.03;;
11334;SDS011;5722;42.620;23.374;2022-11-21T01:08:29;5.27;;;0.93;;
11334;SDS011;5722;42.620;23.374;2022-11-21T01:10:59;2.70;;;1.10;;
11334;SDS011;5722;42.620;23.374;2022-11-21T01:13:27;1.67;;;1.00;;
11334;SDS011;5722;42.620;23.374;2022-11-21T01:15:54;5.27;;;3.23;;
11334;SDS011;5722;42.620;23.374;2022-11-21T01:18:22;6.50;;;5.90;;
11334;SDS011;5722;42.620;23.374;2022-11-21T01:20:49;4.97;;;4.20;;
11334;SDS011;5722;42.620;23.374;2022-11-21T01:23:16;7.47;;;5.27;;
11334;SDS011;5722;42.620;23.374;2022-11-21T01:25:49;9.47;;;5.40;;
11334;SDS011;5722;42.620;23.374;2022-11-21T01:28:16;8.00;;;5.17;;
11334;SDS011;5722;42.620;23.374;2022-11-21T01:30:43;7.27;;;4.80;;
11334;SDS011;5722;42.620;23.374;2022-11-21T01:33:11;6.03;;;4.70;;
11334;SDS011;5722;42.620;23.374;2022-11-21T01:35:37;6.70;;;3.83;;
11334;SDS011;5722;42.620;23.374;2022-11-21T01:38:04;5.13;;;3.40;;
11334;SDS011;5722;42.620;23.374;2022-11-21T01:40:36;3.43;;;2.60;;
11334;SDS011;5722;42.620;23.374;2022-11-21T01:43:12;4.53;;;2.27;;
11334;SDS011;5722;42.620;23.374;2022-11-21T01:45:50;3.40;;;2.40;;
11334;SDS011;5722;42.620;23.374;2022-11-21T01:48:18;3.13;;;2.13;;
11334;SDS011;5722;42.620;23.374;2022-11-21T01:50:45;7.93;;;2.40;;
11334;SDS011;5722;42.620;23.374;2022-11-21T01:53:12;4.00;;;1.87;;
11334;SDS011;5722;42.620;23.374;2022-11-21T01:55:39;3.27;;;1.63;;
11334;SDS011;5722;42.620;23.374;2022-11-21T01:58:06;6.97;;;1.70;;
11334;SDS011;5722;42.620;23.374;2022-11-21T02:00:36;4.27;;;1.60;;
11334;SDS011;5722;42.620;23.374;2022-11-21T02:03:04;4.00;;;2.00;;
11334;SDS011;5722;42.620;23.374;2022-11-21T02:05:35;2.00;;;1.10;;
11334;SDS011;5722;42.620;23.374;2022-11-21T02:08:08;1.67;;;1.10;;
11334;SDS011;5722;42.620;23.374;2022-11-21T02:10:37;2.50;;;1.30;;
11334;SDS011;5722;42.620;23.374;2022-11-21T02:13:05;3.80;;;1.20;;
11334;SDS011;5722;42.620;23.374;2022-11-21T02:15:35;0.90;;;0.90;;
11334;SDS011;5722;42.620;23.374;2022-11-21T02:18:07;1.60;;;0.97;;
11334;SDS011;5722;42.620;23.374;2022-11-21T02:20:35;1.33;;;1.10;;
11334;SDS011;5722;42.620;23.374;2022-11-21T02:23:04;1.13;;;1.00;;
11334;SDS011;5722;42.620;23.374;2022-11-21T02:25:35;2.10;;;1.00;;
11334;SDS011;5722;42.620;23.374;2022-11-21T02:28:03;2.30;;;1.07;;
11334;SDS011;5722;42.620;23.374;2022-11-21T02:30:31;4.40;;;1.07;;
11334;SDS011;5722;42.620;23.374;2022-11-21T02:33:00;2.73;;;1.40;;
11334;SDS011;5722;42.620;23.374;2022-11-21T02:35:28;1.63;;;1.00;;
11334;SDS011;5722;42.620;23.374;2022-11-21T02:37:56;1.13;;;1.03;;
11334;SDS011;5722;42.620;23.374;2022-11-21T02:40:24;2.00;;;1.13;;
11334;SDS011;5722;42.620;23.374;2022-11-21T02:43:07;1.60;;;1.40;;
11334;SDS011;5722;42.620;23.374;2022-11-21T02:45:36;2.73;;;1.30;;
11334;SDS011;5722;42.620;23.374;2022-11-21T02:48:06;3.00;;;1.10;;
11334;SDS011;5722;42.620;23.374;2022-11-21T02:50:34;3.80;;;1.50;;
11334;SDS011;5722;42.620;23.374;2022-11-21T02:53:04;3.07;;;1.50;;
11334;SDS011;5722;42.620;23.374;2022-11-21T02:55:31;1.97;;;1.30;;
11334;SDS011;5722;42.620;23.374;2022-11-21T02:58:00;4.47;;;1.70;;
11334;SDS011;5722;42.620;23.374;2022-11-21T03:00:29;2.97;;;1.63;;
11334;SDS011;5722;42.620;23.374;2022-11-21T03:02:56;2.60;;;1.70;;
11334;SDS011;5722;42.620;23.374;2022-11-21T03:05:23;7.23;;;1.63;;
11334;SDS011;5722;42.620;23.374;2022-11-21T03:07:51;2.13;;;1.60;;
11334;SDS011;5722;42.620;23.374;2022-11-21T03:10:18;2.90;;;1.60;;
11334;SDS011;5722;42.620;23.374;2022-11-21T03:12:49;4.10;;;1.73;;
11334;SDS011;5722;42.620;23.374;2022-11-21T03:15:25;2.90;;;1.50;;
11334;SDS011;5722;42.620;23.374;2022-11-21T03:17:53;3.80;;;1.70;;
11334;SDS011;5722;42.620;23.374;2022-11-21T03:20:22;3.97;;;1.90;;
11334;SDS011;5722;42.620;23.374;2022-11-21T03:22:49;3.10;;;1.67;;
11334;SDS011;5722;42.620;23.374;2022-11-21T03:25:21;2.90;;;1.57;;
11334;SDS011;5722;42.620;23.374;2022-11-21T03:27:49;4.07;;;1.67;;
11334;SDS011;5722;42.620;23.374;2022-11-21T03:30:16;8.03;;;1.57;;
11334;SDS011;5722;42.620;23.374;2022-11-21T03:32:44;4.53;;;1.70;;
11334;SDS011;5722;42.620;23.374;2022-11-21T03:35:12;5.83;;;1.60;;
11334;SDS011;5722;42.620;23.374;2022-11-21T03:37:39;4.63;;;1.50;;
11334;SDS011;5722;42.620;23.374;2022-11-21T03:40:09;3.07;;;1.37;;
11334;SDS011;5722;42.620;23.374;2022-11-21T03:42:36;2.77;;;1.50;;
11334;SDS011;5722;42.620;23.374;2022-11-21T03:45:03;8.03;;;1.40;;
11334;SDS011;5722;42.620;23.374;2022-11-21T03:47:32;3.37;;;1.63;;
11334;SDS011;5722;42.620;23.374;2022-11-21T03:50:02;4.23;;;1.57;;
11334;SDS011;5722;42.620;23.374;2022-11-21T03:52:31;4.17;;;1.50;;
11334;SDS011;5722;42.620;23.374;2022-11-21T03:54:57;3.80;;;1.60;;
11334;SDS011;5722;42.620;23.374;2022-11-21T03:57:24;4.80;;;1.53;;
11334;SDS011;5722;42.620;23.374;2022-11-21T03:59:54;4.90;;;1.33;;
11334;SDS011;5722;42.620;23.374;2022-11-21T04:02:20;5.30;;;1.33;;
11334;SDS011;5722;42.620;23.374;2022-11-21T04:04:48;3.00;;;1.60;;
11334;SDS011;5722;42.620;23.374;2022-11-21T04:07:15;2.50;;;1.50;;
11334;SDS011;5722;42.620;23.374;2022-11-21T04:09:44;2.33;;;1.63;;
11334;SDS011;5722;42.620;23.374;2022-11-21T04:12:11;3.63;;;1.60;;
11334;SDS011;5722;42.620;23.374;2022-11-21T04:14:37;7.43;;;2.07;;
11334;SDS011;5722;42.620;23.374;2022-11-21T04:17:08;3.80;;;1.60;;
11334;SDS011;5722;42.620;23.374;2022-11-21T04:19:35;4.20;;;1.80;;
11334;SDS011;5722;42.620;23.374;2022-11-21T04:22:03;7.30;;;1.80;;
11334;SDS011;5722;42.620;23.374;2022-11-21T04:24:29;2.30;;;1.40;;
11334;SDS011;5722;42.620;23.374;2022-11-21T04:26:58;4.60;;;1.60;;
11334;SDS011;5722;42.620;23.374;2022-11-21T04:29:26;6.70;;;1.87;;
11334;SDS011;5722;42.620;23.374;2022-11-21T04:31:52;4.20;;;1.70;;
11334;SDS011;5722;42.620;23.374;2022-11-21T04:34:20;5.63;;;1.43;;
11334;SDS011;5722;42.620;23.374;2022-11-21T04:36:47;4.10;;;1.33;;
11334;SDS011;5722;42.620;23.374;2022-11-21T04:39:14;4.73;;;1.57;;
11334;SDS011;5722;42.620;23.374;2022-11-21T04:41:40;3.27;;;1.60;;
11334;SDS011;5722;42.620;23.374;2022-11-21T04:44:09;5.10;;;1.53;;
11334;SDS011;5722;42.620;23.374;2022-11-21T04:46:36;5.40;;;2.10;;
11334;SDS011;5722;42.620;23.374;2022-11-21T04:49:09;3.10;;;1.90;;
11334;SDS011;5722;42.620;23.374;2022-11-21T04:51:40;4.80;;;1.80;;
11334;SDS011;5722;42.620;23.374;2022-11-21T04:54:06;5.63;;;2.40;;
11334;SDS011;5722;42.620;23.374;2022-11-21T04:56:35;4.37;;;2.27;;
11334;SDS011;5722;42.620;23.374;2022-11-21T04:59:02;5.53;;;1.80;;
11334;SDS011;5722;42.620;23.374;2022-11-21T05:01:37;6.27;;;2.40;;
11334;SDS011;5722;42.620;23.374;2022-11-21T05:04:04;5.27;;;2.40;;
11334;SDS011;5722;42.620;23.374;2022-11-21T05:06:32;4.53;;;2.07;;
11334;SDS011;5722;42.620;23.374;2022-11-21T05:08:59;5.03;;;2.30;;
11334;SDS011;5722;42.620;23.374;2022-11-21T05:11:26;7.93;;;1.90;;
11334;SDS011;5722;42.620;23.374;2022-11-21T05:14:13;2.57;;;1.70;;
11334;SDS011;5722;42.620;23.374;2022-11-21T05:16:41;4.43;;;1.90;;
11334;SDS011;5722;42.620;23.374;2022-11-21T05:19:09;3.87;;;1.90;;
11334;SDS011;5722;42.620;23.374;2022-11-21T05:21:40;4.00;;;2.50;;
11334;SDS011;5722;42.620;23.374;2022-11-21T05:24:12;4.33;;;2.40;;
11334;SDS011;5722;42.620;23.374;2022-11-21T05:26:43;6.00;;;2.40;;
11334;SDS011;5722;42.620;23.374;2022-11-21T05:29:13;4.10;;;2.57;;
11334;SDS011;5722;42.620;23.374;2022-11-21T05:31:45;5.17;;;2.50;;
11334;SDS011;5722;42.620;23.374;2022-11-21T05:34:13;5.80;;;2.47;;
11334;SDS011;5722;42.620;23.374;2022-11-21T05:36:41;6.17;;;2.53;;
11334;SDS011;5722;42.620;23.374;2022-11-21T05:39:10;6.33;;;2.00;;
11334;SDS011;5722;42.620;23.374;2022-11-21T05:41:37;3.97;;;2.00;;
11334;SDS011;5722;42.620;23.374;2022-11-21T05:44:07;3.43;;;1.50;;
11334;SDS011;5722;42.620;23.374;2022-11-21T05:46:35;4.33;;;2.10;;
11334;SDS011;5722;42.620;23.374;2022-11-21T05:49:04;3.63;;;1.87;;
11334;SDS011;5722;42.620;23.374;2022-11-21T05:51:31;2.70;;;2.00;;
11334;SDS011;5722;42.620;23.374;2022-11-21T05:54:01;2.87;;;2.07;;
11334;SDS011;5722;42.620;23.374;2022-11-21T05:56:39;3.27;;;1.70;;
11334;SDS011;5722;42.620;23.374;2022-11-21T05:59:09;5.87;;;2.00;;
11334;SDS011;5722;42.620;23.374;2022-11-21T06:01:36;2.93;;;1.93;;
11334;SDS011;5722;42.620;23.374;2022-11-21T06:04:22;3.47;;;1.70;;
11334;SDS011;5722;42.620;23.374;2022-11-21T06:06:49;5.23;;;2.13;;
11334;SDS011;5722;42.620;23.374;2022-11-21T06:09:15;2.43;;;1.70;;
11334;SDS011;5722;42.620;23.374;2022-11-21T06:11:49;4.00;;;1.93;;
11334;SDS011;5722;42.620;23.374;2022-11-21T06:14:16;4.67;;;1.80;;
11334;SDS011;5722;42.620;23.374;2022-11-21T06:16:45;2.97;;;1.70;;
11334;SDS011;5722;42.620;23.374;2022-11-21T06:19:12;5.67;;;1.80;;
11334;SDS011;5722;42.620;23.374;2022-11-21T06:21:42;3.77;;;1.60;;
11334;SDS011;5722;42.620;23.374;2022-11-21T06:24:08;3.40;;;1.60;;
11334;SDS011;5722;42.620;23.374;2022-11-21T06:26:36;3.10;;;1.80;;
11334;SDS011;5722;42.620;23.374;2022-11-21T06:29:09;3.33;;;1.70;;
11334;SDS011;5722;42.620;23.374;2022-11-21T06:31:40;5.03;;;1.70;;
11334;SDS011;5722;42.620;23.374;2022-11-21T06:34:09;2.93;;;1.50;;
11334;SDS011;5722;42.620;23.374;2022-11-21T06:36:37;2.83;;;1.43;;
11334;SDS011;5722;42.620;23.374;2022-11-21T06:39:10;4.17;;;1.20;;
11334;SDS011;5722;42.620;23.374;2022-11-21T06:41:37;1.30;;;0.93;;
11334;SDS011;5722;42.620;23.374;2022-11-21T06:44:04;1.23;;;1.13;;
11334;SDS011;5722;42.620;23.374;2022-11-21T06:46:32;2.43;;;1.40;;
11334;SDS011;5722;42.620;23.374;2022-11-21T06:48:59;2.70;;;1.30;;
11334;SDS011;5722;42.620;23.374;2022-11-21T06:51:27;2.93;;;1.60;;
11334;SDS011;5722;42.620;23.374;2022-11-21T06:53:55;2.23;;;1.33;;
11334;SDS011;5722;42.620;23.374;2022-11-21T06:56:26;2.03;;;1.13;;
11334;SDS011;5722;42.620;23.374;2022-11-21T06:58:53;4.90;;;1.63;;
11334;SDS011;5722;42.620;23.374;2022-11-21T07:01:32;1.43;;;1.30;;
11334;SDS011;5722;42.620;23.374;2022-11-21T07:04:02;1.80;;;1.47;;
11334;SDS011;5722;42.620;23.374;2022-11-21T07:06:33;1.87;;;1.40;;
11334;SDS011;5722;42.620;23.374;2022-11-21T07:09:02;1.30;;;1.20;;
11334;SDS011;5722;42.620;23.374;2022-11-21T07:11:35;1.90;;;1.30;;
11334;SDS011;5722;42.620;23.374;2022-11-21T07:14:05;1.60;;;1.50;;
11334;SDS011;5722;42.620;23.374;2022-11-21T07:16:35;2.20;;;1.50;;
11334;SDS011;5722;42.620;23.374;2022-11-21T07:19:02;1.57;;;1.33;;
11334;SDS011;5722;42.620;23.374;2022-11-21T07:21:28;3.47;;;1.40;;
11334;SDS011;5722;42.620;23.374;2022-11-21T07:23:55;1.47;;;1.37;;
11334;SDS011;5722;42.620;23.374;2022-11-21T07:26:22;2.03;;;1.50;;
11334;SDS011;5722;42.620;23.374;2022-11-21T07:28:56;2.63;;;1.57;;
11334;SDS011;5722;42.620;23.374;2022-11-21T07:31:24;2.20;;;1.63;;
11334;SDS011;5722;42.620;23.374;2022-11-21T07:33:52;1.40;;;1.30;;
11334;SDS011;5722;42.620;23.374;2022-11-21T07:36:19;2.37;;;1.60;;
11334;SDS011;5722;42.620;23.374;2022-11-21T07:38:46;2.00;;;1.57;;
11334;SDS011;5722;42.620;23.374;2022-11-21T07:41:15;3.87;;;1.50;;
11334;SDS011;5722;42.620;23.374;2022-11-21T07:43:43;3.57;;;1.47;;
11334;SDS011;5722;42.620;23.374;2022-11-21T07:46:15;2.17;;;1.50;;
11334;SDS011;5722;42.620;23.374;2022-11-21T07:48:44;2.83;;;1.83;;
11334;SDS011;5722;42.620;23.374;2022-11-21T07:51:16;3.10;;;1.60;;
11334;SDS011;5722;42.620;23.374;2022-11-21T07:53:43;1.67;;;1.40;;
11334;SDS011;5722;42.620;23.374;2022-11-21T07:56:10;5.00;;;1.60;;
11334;SDS011;5722;42.620;23.374;2022-11-21T07:58:37;2.00;;;1.80;;
11334;SDS011;5722;42.620;23.374;2022-11-21T08:01:11;2.03;;;1.90;;
11334;SDS011;5722;42.620;23.374;2022-11-21T08:03:42;1.97;;;1.83;;
11334;SDS011;5722;42.620;23.374;2022-11-21T08:06:08;2.00;;;1.80;;
11334;SDS011;5722;42.620;23.374;2022-11-21T08:08:41;3.10;;;1.80;;
11334;SDS011;5722;42.620;23.374;2022-11-21T08:11:08;2.07;;;1.87;;
11334;SDS011;5722;42.620;23.374;2022-11-21T08:13:38;2.20;;;1.77;;
11334;SDS011;5722;42.620;23.374;2022-11-21T08:16:05;3.67;;;2.03;;
11334;SDS011;5722;42.620;23.374;2022-11-21T08:18:32;2.23;;;2.03;;
11334;SDS011;5722;42.620;23.374;2022-11-21T08:21:01;1.73;;;1.63;;
11334;SDS011;5722;42.620;23.374;2022-11-21T08:23:32;2.60;;;1.80;;
11334;SDS011;5722;42.620;23.374;2022-11-21T08:26:00;2.33;;;1.67;;
11334;SDS011;5722;42.620;23.374;2022-11-21T08:28:31;2.63;;;2.40;;
11334;SDS011;5722;42.620;23.374;2022-11-21T08:30:58;2.37;;;2.07;;
11334;SDS011;5722;42.620;23.374;2022-11-21T08:33:28;2.20;;;2.00;;
11334;SDS011;5722;42.620;23.374;2022-11-21T08:35:55;2.10;;;1.90;;
11334;SDS011;5722;42.620;23.374;2022-11-21T08:38:23;2.67;;;2.47;;
11334;SDS011;5722;42.620;23.374;2022-11-21T08:40:50;2.80;;;2.17;;
11334;SDS011;5722;42.620;23.374;2022-11-21T08:43:33;2.53;;;2.23;;
11334;SDS011;5722;42.620;23.374;2022-11-21T08:46:00;3.40;;;1.90;;
11334;SDS011;5722;42.620;23.374;2022-11-21T08:48:27;3.17;;;2.10;;
11334;SDS011;5722;42.620;23.374;2022-11-21T08:50:55;2.00;;;1.80;;
11334;SDS011;5722;42.620;23.374;2022-11-21T08:53:25;2.50;;;2.20;;
11334;SDS011;5722;42.620;23.374;2022-11-21T08:55:52;2.10;;;1.90;;
11334;SDS011;5722;42.620;23.374;2022-11-21T08:58:22;2.53;;;2.10;;
11334;SDS011;5722;42.620;23.374;2022-11-21T09:00:51;2.23;;;2.03;;
11334;SDS011;5722;42.620;23.374;2022-11-21T09:03:20;1.90;;;1.77;;
11334;SDS011;5722;42.620;23.374;2022-11-21T09:05:47;2.37;;;2.17;;
11334;SDS011;5722;42.620;23.374;2022-11-21T09:08:14;2.23;;;2.00;;
11334;SDS011;5722;42.620;23.374;2022-11-21T09:10:46;2.80;;;2.40;;
11334;SDS011;5722;42.620;23.374;2022-11-21T09:13:13;2.53;;;2.33;;
11334;SDS011;5722;42.620;23.374;2022-11-21T09:15:40;2.60;;;2.00;;
11334;SDS011;5722;42.620;23.374;2022-11-21T09:18:24;2.50;;;2.00;;
11334;SDS011;5722;42.620;23.374;2022-11-21T09:20:50;1.40;;;1.30;;
11334;SDS011;5722;42.620;23.374;2022-11-21T09:23:18;1.97;;;1.77;;
11334;SDS011;5722;42.620;23.374;2022-11-21T09:25:47;2.47;;;2.07;;
11334;SDS011;5722;42.620;23.374;2022-11-21T09:28:14;2.40;;;2.10;;
11334;SDS011;5722;42.620;23.374;2022-11-21T09:30:42;5.27;;;2.43;;
11334;SDS011;5722;42.620;23.374;2022-11-21T09:33:09;2.93;;;1.77;;
11334;SDS011;5722;42.620;23.374;2022-11-21T09:35:36;3.40;;;2.30;;
11334;SDS011;5722;42.620;23.374;2022-11-21T09:38:03;2.43;;;2.20;;
11334;SDS011;5722;42.620;23.374;2022-11-21T09:40:31;3.40;;;2.40;;
11334;SDS011;5722;42.620;23.374;2022-11-21T09:45:46;3.63;;;2.10;;
11334;SDS011;5722;42.620;23.374;2022-11-21T09:48:14;2.47;;;2.27;;
11334;SDS011;5722;42.620;23.374;2022-11-21T09:50:47;4.30;;;2.30;;
11334;SDS011;5722;42.620;23.374;2022-11-21T09:53:17;2.40;;;2.20;;
11334;SDS011;5722;42.620;23.374;2022-11-21T09:55:45;2.10;;;1.90;;
11334;SDS011;5722;42.620;23.374;2022-11-21T09:58:16;4.30;;;2.60;;
11334;SDS011;5722;42.620;23.374;2022-11-21T10:00:48;2.47;;;2.27;;
11334;SDS011;5722;42.620;23.374;2022-11-21T10:03:15;2.80;;;2.30;;
11334;SDS011;5722;42.620;23.374;2022-11-21T10:05:57;3.93;;;2.00;;
11334;SDS011;5722;42.620;23.374;2022-11-21T10:08:33;2.37;;;2.17;;
11334;SDS011;5722;42.620;23.374;2022-11-21T10:11:04;3.10;;;2.20;;
11334;SDS011;5722;42.620;23.374;2022-11-21T10:13:37;4.80;;;2.30;;
11334;SDS011;5722;42.620;23.374;2022-11-21T10:16:11;4.17;;;2.90;;
11334;SDS011;5722;42.620;23.374;2022-11-21T10:19:00;3.03;;;2.73;;
11334;SDS011;5722;42.620;23.374;2022-11-21T10:21:48;2.47;;;2.27;;
11334;SDS011;5722;42.620;23.374;2022-11-21T10:24:21;2.67;;;2.47;;
11334;SDS011;5722;42.620;23.374;2022-11-21T10:26:52;2.53;;;2.33;;
11334;SDS011;5722;42.620;23.374;2022-11-21T10:29:21;3.03;;;2.70;;
11334;SDS011;5722;42.620;23.374;2022-11-21T10:31:51;4.83;;;3.10;;
11334;SDS011;5722;42.620;23.374;2022-11-21T10:34:22;3.57;;;3.23;;
11334;SDS011;5722;42.620;23.374;2022-11-21T10:36:51;3.90;;;3.50;;
11334;SDS011;5722;42.620;23.374;2022-11-21T10:39:20;5.77;;;4.30;;
11334;SDS011;5722;42.620;23.374;2022-11-21T10:41:49;6.40;;;5.37;;
11334;SDS011;5722;42.620;23.374;2022-11-21T10:44:21;5.60;;;5.10;;
11334;SDS011;5722;42.620;23.374;2022-11-21T10:47:12;6.77;;;6.17;;
11334;SDS011;5722;42.620;23.374;2022-11-21T10:49:39;7.73;;;6.40;;
11334;SDS011;5722;42.620;23.374;2022-11-21T10:52:09;6.77;;;6.03;;
11334;SDS011;5722;42.620;23.374;2022-11-21T10:57:18;7.57;;;6.87;;
11334;SDS011;5722;42.620;23.374;2022-11-21T10:59:54;6.93;;;6.10;;
11334;SDS011;5722;42.620;23.374;2022-11-21T11:02:25;9.03;;;6.90;;
11334;SDS011;5722;42.620;23.374;2022-11-21T11:07:33;6.73;;;5.73;;
11334;SDS011;5722;42.620;23.374;2022-11-21T11:10:20;6.97;;;5.63;;
11334;SDS011;5722;42.620;23.374;2022-11-21T11:12:48;6.27;;;5.33;;
11334;SDS011;5722;42.620;23.374;2022-11-21T11:15:32;5.10;;;4.33;;
11334;SDS011;5722;42.620;23.374;2022-11-21T11:18:01;5.63;;;5.10;;
11334;SDS011;5722;42.620;23.374;2022-11-21T11:20:32;5.50;;;5.00;;
11334;SDS011;5722;42.620;23.374;2022-11-21T11:23:01;7.53;;;6.27;;
11334;SDS011;5722;42.620;23.374;2022-11-21T11:25:43;11.83;;;5.37;;
11334;SDS011;5722;42.620;23.374;2022-11-21T11:28:11;6.37;;;5.70;;
11334;SDS011;5722;42.620;23.374;2022-11-21T11:30:38;6.00;;;5.40;;
11334;SDS011;5722;42.620;23.374;2022-11-21T11:35:51;5.90;;;4.83;;
11334;SDS011;5722;42.620;23.374;2022-11-21T11:38:19;7.40;;;5.90;;
11334;SDS011;5722;42.620;23.374;2022-11-21T11:40:46;7.47;;;6.17;;
11334;SDS011;5722;42.620;23.374;2022-11-21T11:43:21;8.70;;;6.27;;
11334;SDS011;5722;42.620;23.374;2022-11-21T11:49:10;6.53;;;5.90;;
11334;SDS011;5722;42.620;23.374;2022-11-21T11:51:41;7.90;;;6.83;;
11334;SDS011;5722;42.620;23.374;2022-11-21T11:54:12;7.07;;;5.97;;
11334;SDS011;5722;42.620;23.374;2022-11-21T11:56:44;7.43;;;6.63;;
11334;SDS011;5722;42.620;23.374;2022-11-21T11:59:13;7.53;;;6.33;;
11334;SDS011;5722;42.620;23.374;2022-11-21T12:01:44;10.33;;;6.77;;
11334;SDS011;5722;42.620;23.374;2022-11-21T12:04:14;7.53;;;6.73;;
11334;SDS011;5722;42.620;23.374;2022-11-21T12:06:58;7.13;;;6.43;;
11334;SDS011;5722;42.620;23.374;2022-11-21T12:09:29;6.93;;;6.23;;
11334;SDS011;5722;42.620;23.374;2022-11-21T12:11:58;7.47;;;6.70;;
11334;SDS011;5722;42.620;23.374;2022-11-21T12:17:35;6.60;;;6.00;;
11334;SDS011;5722;42.620;23.374;2022-11-21T12:20:11;7.83;;;6.17;;
11334;SDS011;5722;42.620;23.374;2022-11-21T12:22:40;6.27;;;5.67;;
11334;SDS011;5722;42.620;23.374;2022-11-21T12:25:09;6.33;;;5.73;;
11334;SDS011;5722;42.620;23.374;2022-11-21T12:27:36;6.13;;;5.53;;
11334;SDS011;5722;42.620;23.374;2022-11-21T12:30:18;6.90;;;5.80;;
11334;SDS011;5722;42.620;23.374;2022-11-21T12:32:49;6.50;;;5.80;;
11334;SDS011;5722;42.620;23.374;2022-11-21T12:35:24;7.10;;;5.83;;
11334;SDS011;5722;42.620;23.374;2022-11-21T12:37:56;6.90;;;6.17;;
11334;SDS011;5722;42.620;23.374;2022-11-21T12:40:35;6.70;;;5.80;;
11334;SDS011;5722;42.620;23.374;2022-11-21T12:43:09;8.53;;;6.03;;
11334;SDS011;5722;42.620;23.374;2022-11-21T12:45:37;7.33;;;6.20;;
11334;SDS011;5722;42.620;23.374;2022-11-21T12:48:25;7.43;;;5.60;;
11334;SDS011;5722;42.620;23.374;2022-11-21T12:51:17;6.03;;;5.43;;
11334;SDS011;5722;42.620;23.374;2022-11-21T12:54:07;7.17;;;6.03;;
11334;SDS011;5722;42.620;23.374;2022-11-21T12:56:55;7.93;;;6.00;;
11334;SDS011;5722;42.620;23.374;2022-11-21T12:59:24;7.13;;;4.83;;
11334;SDS011;5722;42.620;23.374;2022-11-21T13:01:53;8.33;;;5.57;;
11334;SDS011;5722;42.620;23.374;2022-11-21T13:04:23;4.83;;;4.40;;
11334;SDS011;5722;42.620;23.374;2022-11-21T13:06:53;5.47;;;4.97;;
11334;SDS011;5722;42.620;23.374;2022-11-21T13:09:22;5.93;;;5.10;;
11334;SDS011;5722;42.620;23.374;2022-11-21T13:11:52;5.37;;;4.87;;
11334;SDS011;5722;42.620;23.374;2022-11-21T13:14:34;5.13;;;4.63;;
11334;SDS011;5722;42.620;23.374;2022-11-21T13:17:11;4.87;;;4.37;;
11334;SDS011;5722;42.620;23.374;2022-11-21T13:19:44;5.57;;;4.57;;
11334;SDS011;5722;42.620;23.374;2022-11-21T13:25:04;7.10;;;6.40;;
11334;SDS011;5722;42.620;23.374;2022-11-21T13:27:37;6.87;;;5.87;;
11334;SDS011;5722;42.620;23.374;2022-11-21T13:30:18;6.90;;;5.83;;
11334;SDS011;5722;42.620;23.374;2022-11-21T13:32:48;6.87;;;6.20;;
11334;SDS011;5722;42.620;23.374;2022-11-21T13:38:00;5.90;;;5.30;;
11334;SDS011;5722;42.620;23.374;2022-11-21T13:40:38;7.37;;;6.17;;
11334;SDS011;5722;42.620;23.374;2022-11-21T13:43:25;7.47;;;6.10;;
11334;SDS011;5722;42.620;23.374;2022-11-21T13:45:52;6.30;;;5.70;;
11334;SDS011;5722;42.620;23.374;2022-11-21T13:48:29;6.17;;;5.37;;
11334;SDS011;5722;42.620;23.374;2022-11-21T13:54:03;6.53;;;5.90;;
11334;SDS011;5722;42.620;23.374;2022-11-21T13:56:37;6.43;;;5.57;;
11334;SDS011;5722;42.620;23.374;2022-11-21T13:59:14;6.67;;;5.97;;
11334;SDS011;5722;42.620;23.374;2022-11-21T14:01:48;6.40;;;5.60;;
11334;SDS011;5722;42.620;23.374;2022-11-21T14:04:32;9.37;;;6.53;;
11334;SDS011;5722;42.620;23.374;2022-11-21T14:07:20;7.27;;;6.57;;
11334;SDS011;5722;42.620;23.374;2022-11-21T14:09:48;9.67;;;6.30;;
11334;SDS011;5722;42.620;23.374;2022-11-21T14:12:21;8.33;;;6.37;;
11334;SDS011;5722;42.620;23.374;2022-11-21T14:14:52;6.93;;;6.20;;
11334;SDS011;5722;42.620;23.374;2022-11-21T14:20:12;7.40;;;6.50;;
11334;SDS011;5722;42.620;23.374;2022-11-21T14:22:40;8.30;;;7.33;;
11334;SDS011;5722;42.620;23.374;2022-11-21T14:25:08;8.17;;;7.07;;
11334;SDS011;5722;42.620;23.374;2022-11-21T14:27:37;8.60;;;7.20;;
11334;SDS011;5722;42.620;23.374;2022-11-21T14:30:23;8.33;;;7.47;;
11334;SDS011;5722;42.620;23.374;2022-11-21T14:32:50;9.03;;;7.20;;
11334;SDS011;5722;42.620;23.374;2022-11-21T14:35:18;7.40;;;6.60;;
11334;SDS011;5722;42.620;23.374;2022-11-21T14:37:44;7.80;;;7.00;;
11334;SDS011;5722;42.620;23.374;2022-11-21T14:40:12;8.90;;;7.60;;
11334;SDS011;5722;42.620;23.374;2022-11-21T14:42:41;8.70;;;7.47;;
11334;SDS011;5722;42.620;23.374;2022-11-21T14:45:16;8.77;;;7.80;;
11334;SDS011;5722;42.620;23.374;2022-11-21T14:47:47;8.87;;;7.97;;
11334;SDS011;5722;42.620;23.374;2022-11-21T14:50:24;10.60;;;8.47;;
11334;SDS011;5722;42.620;23.374;2022-11-21T14:52:51;8.80;;;7.90;;
11334;SDS011;5722;42.620;23.374;2022-11-21T14:55:22;9.77;;;8.27;;
11334;SDS011;5722;42.620;23.374;2022-11-21T14:57:53;9.37;;;8.30;;
11334;SDS011;5722;42.620;23.374;2022-11-21T15:00:23;8.63;;;7.73;;
11334;SDS011;5722;42.620;23.374;2022-11-21T15:02:54;10.10;;;8.30;;
11334;SDS011;5722;42.620;23.374;2022-11-21T15:05:25;8.53;;;7.43;;
11334;SDS011;5722;42.620;23.374;2022-11-21T15:08:09;8.73;;;7.50;;
11334;SDS011;5722;42.620;23.374;2022-11-21T15:10:36;8.10;;;7.30;;
11334;SDS011;5722;42.620;23.374;2022-11-21T15:13:06;7.90;;;7.10;;
11334;SDS011;5722;42.620;23.374;2022-11-21T15:15:39;7.27;;;6.53;;
11334;SDS011;5722;42.620;23.374;2022-11-21T15:18:11;8.53;;;7.63;;
11334;SDS011;5722;42.620;23.374;2022-11-21T15:20:42;7.40;;;6.40;;
11334;SDS011;5722;42.620;23.374;2022-11-21T15:23:23;7.73;;;6.57;;
11334;SDS011;5722;42.620;23.374;2022-11-21T15:25:53;7.53;;;6.83;;
11334;SDS011;5722;42.620;23.374;2022-11-21T15:28:24;7.20;;;6.50;;
11334;SDS011;5722;42.620;23.374;2022-11-21T15:33:53;8.10;;;6.40;;
11334;SDS011;5722;42.620;23.374;2022-11-21T15:36:22;6.37;;;5.77;;
11334;SDS011;5722;42.620;23.374;2022-11-21T15:38:54;6.17;;;5.67;;